createdAt,value
2023-05-24T00:01:59.915Z,48.51
2023-05-24T00:04:30.442Z,48.46
2023-05-24T00:06:58.176Z,48.41
2023-05-24T00:09:24.826Z,48.34
2023-05-24T00:11:51.438Z,48.18
2023-05-24T00:14:18.032Z,48.05
2023-05-24T00:16:46.483Z,48.12
2023-05-24T00:19:18.297Z,48.07
2023-05-24T00:21:46.107Z,48.09
2023-05-24T00:24:12.793Z,48.06
2023-05-24T00:26:39.680Z,48.43
2023-05-24T00:29:06.836Z,48.44
2023-05-24T00:31:33.500Z,48.31
2023-05-24T00:34:00.325Z,48.36
2023-05-24T00:36:27.108Z,48.36
2023-05-24T00:38:53.962Z,48.60
2023-05-24T00:41:20.730Z,48.66
2023-05-24T00:43:47.323Z,48.21
2023-05-24T00:46:28.795Z,48.64
2023-05-24T00:48:55.782Z,48.80
2023-05-24T00:51:23.017Z,48.19
2023-05-24T00:53:50.076Z,48.30
2023-05-24T00:56:17.668Z,48.14
2023-05-24T00:58:45.240Z,48.70
2023-05-24T01:01:12.146Z,48.59
2023-05-24T01:03:39.522Z,48.34
2023-05-24T01:06:07.950Z,48.63
2023-05-24T01:09:04.120Z,48.57
2023-05-24T01:11:58.255Z,48.58
2023-05-24T01:14:53.505Z,48.26
2023-05-24T01:17:26.594Z,48.79
2023-05-24T01:19:59.955Z,48.69
2023-05-24T01:22:42.238Z,48.34
2023-05-24T01:25:30.536Z,48.66
2023-05-24T01:27:58.713Z,48.67
2023-05-24T01:30:27.950Z,48.24
2023-05-24T01:32:54.606Z,48.83
2023-05-24T01:35:21.857Z,48.57
2023-05-24T01:37:48.456Z,48.60
2023-05-24T01:40:15.949Z,48.79
2023-05-24T01:42:52.315Z,48.74
2023-05-24T01:45:57.525Z,48.86
2023-05-24T01:48:54.618Z,48.89
2023-05-24T01:51:25.044Z,48.81
2023-05-24T01:53:52.912Z,48.30
2023-05-24T01:56:20.742Z,48.00
2023-05-24T01:58:50.602Z,48.91
2023-05-24T02:01:18.002Z,48.35
2023-05-24T02:03:44.876Z,48.27
2023-05-24T02:06:11.566Z,48.43
2023-05-24T02:08:38.346Z,48.50
2023-05-24T02:11:04.931Z,48.27
2023-05-24T02:13:31.587Z,48.28
2023-05-24T02:15:58.233Z,48.65
2023-05-24T02:18:24.803Z,48.83
2023-05-24T02:20:51.403Z,48.34
2023-05-24T02:23:18.002Z,48.23
2023-05-24T02:25:44.713Z,48.41
2023-05-24T02:28:11.289Z,48.88
2023-05-24T02:30:38.486Z,48.67
2023-05-24T02:33:05.517Z,48.84
2023-05-24T02:35:33.605Z,48.57
2023-05-24T02:38:01.560Z,48.58
2023-05-24T02:40:28.171Z,48.80
2023-05-24T02:42:54.786Z,48.47
2023-05-24T02:45:21.364Z,48.55
2023-05-24T02:47:47.959Z,48.38
2023-05-24T02:50:14.537Z,48.92
2023-05-24T02:52:41.543Z,48.39
2023-05-24T02:55:08.588Z,48.78
2023-05-24T02:57:35.582Z,48.48
2023-05-24T03:00:02.260Z,48.18
2023-05-24T03:02:29.303Z,48.91
2023-05-24T03:04:56.090Z,48.48
2023-05-24T03:07:22.672Z,48.29
2023-05-24T03:09:49.246Z,48.94
2023-05-24T03:12:15.903Z,48.89
2023-05-24T03:14:42.445Z,48.96
2023-05-24T03:17:09.017Z,48.23
2023-05-24T03:19:35.668Z,48.78
2023-05-24T03:22:02.274Z,48.59
2023-05-24T03:24:28.870Z,48.80
2023-05-24T03:26:55.427Z,48.57
2023-05-24T03:29:22.014Z,48.40
2023-05-24T03:31:48.799Z,48.35
2023-05-24T03:34:15.656Z,48.23
2023-05-24T03:36:42.238Z,48.74
2023-05-24T03:39:09.369Z,48.30
2023-05-24T03:41:36.118Z,48.80
2023-05-24T03:44:02.681Z,48.20
2023-05-24T03:46:29.298Z,48.20
2023-05-24T03:48:55.944Z,48.16
2023-05-24T03:51:29.806Z,48.75
2023-05-24T03:53:57.465Z,48.33
2023-05-24T03:56:24.608Z,48.59
2023-05-24T03:58:52.329Z,48.52
2023-05-24T04:01:32.564Z,48.74
2023-05-24T04:04:01.485Z,48.29
2023-05-24T04:06:29.445Z,48.97
2023-05-24T04:08:57.780Z,48.68
2023-05-24T04:11:28.162Z,48.64
2023-05-24T04:13:55.993Z,48.68
2023-05-24T04:16:26.580Z,48.34
2023-05-24T04:18:57.082Z,48.74
2023-05-24T04:21:24.099Z,48.59
2023-05-24T04:23:50.677Z,48.73
2023-05-24T04:26:17.825Z,48.55
2023-05-24T04:28:45.641Z,48.76
2023-05-24T04:31:12.444Z,48.73
2023-05-24T04:33:39.689Z,48.34
2023-05-24T04:36:06.523Z,48.22
2023-05-24T04:38:34.555Z,48.55
2023-05-24T04:41:01.230Z,48.28
2023-05-24T04:43:28.583Z,48.28
2023-05-24T04:45:55.572Z,47.94
2023-05-24T04:48:24.326Z,48.48
2023-05-24T04:50:52.548Z,48.51
2023-05-24T04:53:20.203Z,48.23
2023-05-24T04:55:47.780Z,48.16
2023-05-24T04:58:14.638Z,47.83
2023-05-24T05:00:41.470Z,47.96
2023-05-24T05:03:08.745Z,48.27
2023-05-24T05:05:35.730Z,47.74
2023-05-24T05:08:03.673Z,47.74
2023-05-24T05:10:30.414Z,48.25
2023-05-24T05:12:57.010Z,48.18
2023-05-24T05:15:24.285Z,48.05
2023-05-24T05:17:51.225Z,48.17
2023-05-24T05:20:17.989Z,48.12
2023-05-24T05:22:48.511Z,47.64
2023-05-24T05:25:15.595Z,48.28
2023-05-24T05:27:42.236Z,47.70
2023-05-24T05:30:09.389Z,48.19
2023-05-24T05:32:36.716Z,48.12
2023-05-24T05:35:04.035Z,47.76
2023-05-24T05:37:31.301Z,48.00
2023-05-24T05:39:58.097Z,48.18
2023-05-24T05:42:24.869Z,48.00
2023-05-24T05:44:52.711Z,47.65
2023-05-24T05:47:19.593Z,47.61
2023-05-24T05:49:46.191Z,47.58
2023-05-24T05:52:12.861Z,48.01
2023-05-24T05:54:39.496Z,47.70
2023-05-24T05:57:08.208Z,47.43
2023-05-24T05:59:36.253Z,47.18
2023-05-24T06:02:06.923Z,47.67
2023-05-24T06:04:34.116Z,47.48
2023-05-24T06:07:00.964Z,47.26
2023-05-24T06:09:27.580Z,47.39
2023-05-24T06:11:54.225Z,47.66
2023-05-24T06:14:22.289Z,47.47
2023-05-24T06:16:49.278Z,47.48
2023-05-24T06:19:16.686Z,47.57
2023-05-24T06:21:47.790Z,47.22
2023-05-24T06:24:15.697Z,47.49
2023-05-24T06:26:42.752Z,47.23
2023-05-24T06:29:09.802Z,47.24
2023-05-24T06:31:36.438Z,47.81
2023-05-24T06:34:04.652Z,47.54
2023-05-24T06:36:36.010Z,47.42
2023-05-24T06:39:03.424Z,47.85
2023-05-24T06:41:30.265Z,47.40
2023-05-24T06:43:56.790Z,47.58
2023-05-24T06:46:23.422Z,47.25
2023-05-24T06:48:50.074Z,47.23
2023-05-24T06:51:17.262Z,47.19
2023-05-24T06:53:44.564Z,47.63
2023-05-24T06:56:11.259Z,47.49
2023-05-24T06:58:37.966Z,47.48
2023-05-24T07:01:05.207Z,47.14
2023-05-24T07:03:32.490Z,47.67
2023-05-24T07:05:59.284Z,47.41
2023-05-24T07:08:25.908Z,47.25
2023-05-24T07:10:53.980Z,47.37
2023-05-24T07:13:20.604Z,47.38
2023-05-24T07:15:47.444Z,47.71
2023-05-24T07:18:14.380Z,47.65
2023-05-24T07:20:41.513Z,47.24
2023-05-24T07:23:08.570Z,47.53
2023-05-24T07:25:35.122Z,47.34
2023-05-24T07:28:01.717Z,47.35
2023-05-24T07:30:32.484Z,47.22
2023-05-24T07:33:01.579Z,47.36
2023-05-24T07:35:29.434Z,47.36
2023-05-24T07:37:56.480Z,47.32
2023-05-24T07:40:23.281Z,47.68
2023-05-24T07:42:50.268Z,47.30
2023-05-24T07:45:16.963Z,47.35
2023-05-24T07:47:43.655Z,47.29
2023-05-24T07:50:10.681Z,47.32
2023-05-24T07:52:38.823Z,47.34
2023-05-24T07:55:06.645Z,47.37
2023-05-24T07:57:33.665Z,47.21
2023-05-24T08:00:07.177Z,47.37
2023-05-24T08:02:34.932Z,47.49
2023-05-24T08:05:01.642Z,47.68
2023-05-24T08:07:28.977Z,47.24
2023-05-24T08:09:55.654Z,47.44
2023-05-24T08:12:22.328Z,47.28
2023-05-24T08:14:48.888Z,47.07
2023-05-24T08:17:15.491Z,47.30
2023-05-24T08:19:42.069Z,47.26
2023-05-24T08:22:08.647Z,47.50
2023-05-24T08:24:35.313Z,47.27
2023-05-24T08:27:02.854Z,46.98
2023-05-24T08:29:29.802Z,46.91
2023-05-24T08:31:56.577Z,47.35
2023-05-24T08:34:23.225Z,47.07
2023-05-24T08:36:50.083Z,47.15
2023-05-24T08:39:16.715Z,47.22
2023-05-24T08:41:44.496Z,46.87
2023-05-24T08:44:13.577Z,47.03
2023-05-24T08:46:40.285Z,47.09
2023-05-24T08:49:09.158Z,47.11
2023-05-24T08:51:38.547Z,46.96
2023-05-24T08:54:05.818Z,47.30
2023-05-24T08:56:33.734Z,47.01
2023-05-24T08:59:00.528Z,46.91
2023-05-24T09:01:30.532Z,46.87
2023-05-24T09:06:25.622Z,47.21
2023-05-24T09:08:53.947Z,47.30
2023-05-24T09:11:22.917Z,47.45
2023-05-24T09:13:49.875Z,47.40
2023-05-24T09:16:16.999Z,46.96
2023-05-24T09:18:43.696Z,46.96
2023-05-24T09:21:13.400Z,47.05
2023-05-24T09:23:41.578Z,47.08
2023-05-24T09:26:09.688Z,46.84
2023-05-24T09:28:37.304Z,46.97
2023-05-24T09:31:07.331Z,47.00
2023-05-24T09:33:35.472Z,47.07
2023-05-24T09:36:04.559Z,47.01
2023-05-24T09:38:31.212Z,47.01
2023-05-24T09:41:00.498Z,47.16
2023-05-24T09:43:27.148Z,46.92
2023-05-24T09:45:55.813Z,46.57
2023-05-24T09:48:22.400Z,46.81
2023-05-24T09:51:11.694Z,46.48
2023-05-24T09:53:38.656Z,46.36
2023-05-24T09:56:09.952Z,46.46
2023-05-24T09:58:36.929Z,46.45
2023-05-24T10:01:07.978Z,46.47
2023-05-24T10:03:37.434Z,46.55
2023-05-24T10:06:07.573Z,46.51
2023-05-24T10:08:36.195Z,46.40
2023-05-24T10:11:06.942Z,46.33
2023-05-24T10:13:36.565Z,46.44
2023-05-24T10:16:03.912Z,46.37
2023-05-24T10:18:30.619Z,45.85
2023-05-24T10:21:01.834Z,46.35
2023-05-24T10:23:31.100Z,46.04
2023-05-24T10:26:06.568Z,45.95
2023-05-24T10:28:36.939Z,46.00
2023-05-24T10:31:12.942Z,46.05
2023-05-24T10:33:42.812Z,45.76
2023-05-24T10:36:13.039Z,46.05
2023-05-24T10:38:40.575Z,46.27
2023-05-24T10:41:08.475Z,46.24
2023-05-24T10:43:38.426Z,46.14
2023-05-24T10:46:08.494Z,46.27
2023-05-24T10:48:37.088Z,46.23
2023-05-24T10:51:37.182Z,46.19
2023-05-24T10:54:13.753Z,46.04
2023-05-24T10:56:42.856Z,46.25
2023-05-24T10:59:09.466Z,45.90
2023-05-24T11:01:36.469Z,46.00
2023-05-24T11:04:12.005Z,46.12
2023-05-24T11:06:58.229Z,45.82
2023-05-24T11:09:26.368Z,46.06
2023-05-24T11:12:00.000Z,46.02
2023-05-24T11:14:27.775Z,45.91
2023-05-24T11:16:55.219Z,45.64
2023-05-24T11:19:35.626Z,45.63
2023-05-24T11:22:04.907Z,45.76
2023-05-24T11:24:32.750Z,45.80
2023-05-24T11:27:02.187Z,45.95
2023-05-24T11:29:30.078Z,45.48
2023-05-24T11:32:01.360Z,45.94
2023-05-24T11:34:28.192Z,45.94
2023-05-24T11:36:55.560Z,45.73
2023-05-24T11:39:23.773Z,45.79
2023-05-24T11:41:50.734Z,45.69
2023-05-24T11:44:21.486Z,45.92
2023-05-24T11:46:48.228Z,45.71
2023-05-24T11:49:17.959Z,45.44
2023-05-24T11:51:44.777Z,45.70
2023-05-24T11:54:11.975Z,45.84
2023-05-24T11:56:38.889Z,45.70
2023-05-24T11:59:16.065Z,45.61
2023-05-24T12:01:43.329Z,45.72
2023-05-24T12:04:10.809Z,45.54
2023-05-24T12:06:42.436Z,45.46
2023-05-24T12:09:13.436Z,45.64
2023-05-24T12:11:46.207Z,45.52
2023-05-24T12:14:27.636Z,45.52
2023-05-24T12:16:57.897Z,45.59
2023-05-24T12:19:33.932Z,45.65
2023-05-24T12:22:05.189Z,45.71
2023-05-24T12:24:32.836Z,45.41
2023-05-24T12:27:02.239Z,45.41
2023-05-24T12:29:41.173Z,45.45
2023-05-24T12:32:15.288Z,45.34
2023-05-24T12:34:45.444Z,45.73
2023-05-24T12:37:13.853Z,45.57
2023-05-24T12:39:43.553Z,45.37
2023-05-24T12:42:13.252Z,45.55
2023-05-24T12:44:40.369Z,45.32
2023-05-24T12:47:08.448Z,45.55
2023-05-24T12:49:35.448Z,45.44
2023-05-24T12:52:02.424Z,45.33
2023-05-24T12:54:29.952Z,45.45
2023-05-24T12:56:57.828Z,45.39
2023-05-24T12:59:26.118Z,45.72
2023-05-24T13:01:53.517Z,45.57
2023-05-24T13:04:22.290Z,45.20
2023-05-24T13:06:49.468Z,45.35
2023-05-24T13:09:19.371Z,45.54
2023-05-24T13:11:46.699Z,45.60
2023-05-24T13:14:13.585Z,45.44
2023-05-24T13:16:40.490Z,45.62
2023-05-24T13:19:07.181Z,45.05
2023-05-24T13:21:34.044Z,45.53
2023-05-24T13:24:00.860Z,45.15
2023-05-24T13:26:27.801Z,45.51
2023-05-24T13:29:26.580Z,45.40
2023-05-24T13:31:41.888Z,45.54
2023-05-24T13:34:12.275Z,45.75
2023-05-24T13:36:39.622Z,45.10
2023-05-24T13:41:39.647Z,45.10
2023-05-24T13:44:07.164Z,45.40
2023-05-24T13:46:34.659Z,45.07
2023-05-24T13:49:01.611Z,45.76
2023-05-24T13:51:29.148Z,45.38
2023-05-24T13:53:56.395Z,45.50
2023-05-24T13:56:24.365Z,45.12
2023-05-24T13:58:52.459Z,44.87
2023-05-24T14:01:19.794Z,45.31
2023-05-24T14:03:46.624Z,45.30
2023-05-24T14:06:13.587Z,44.94
2023-05-24T14:08:40.766Z,44.73
2023-05-24T14:11:07.612Z,45.07
2023-05-24T14:16:05.359Z,45.31
2023-05-24T14:18:33.159Z,45.31
2023-05-24T14:20:59.904Z,44.92
2023-05-24T14:23:27.525Z,44.89
2023-05-24T14:25:54.210Z,45.28
2023-05-24T14:28:21.021Z,45.15
2023-05-24T14:30:47.750Z,45.11
2023-05-24T14:33:14.746Z,45.15
2023-05-24T14:35:42.690Z,45.28
2023-05-24T14:38:10.989Z,45.37
2023-05-24T14:40:39.856Z,44.83
2023-05-24T14:43:10.095Z,45.01
2023-05-24T14:45:45.794Z,45.00
2023-05-24T14:48:13.073Z,44.84
2023-05-24T14:50:41.016Z,44.96
2023-05-24T14:53:15.119Z,44.93
2023-05-24T14:55:43.501Z,45.10
2023-05-24T14:58:14.141Z,44.97
2023-05-24T15:00:42.587Z,44.88
2023-05-24T15:03:11.398Z,44.71
2023-05-24T15:05:38.817Z,44.56
2023-05-24T15:08:08.468Z,44.38
2023-05-24T15:10:35.300Z,44.67
2023-05-24T15:13:04.065Z,44.54
2023-05-24T15:15:31.511Z,44.85
2023-05-24T15:18:00.111Z,44.61
2023-05-24T15:20:27.288Z,44.58
2023-05-24T15:22:54.093Z,44.67
2023-05-24T15:25:21.203Z,44.45
2023-05-24T15:27:49.480Z,44.90
2023-05-24T15:30:17.565Z,44.75
2023-05-24T15:32:47.250Z,44.76
2023-05-24T15:35:14.325Z,43.63
2023-05-24T15:37:42.707Z,43.00
2023-05-24T15:40:10.645Z,43.75
2023-05-24T15:42:37.470Z,44.04
2023-05-24T15:45:04.550Z,43.99
2023-05-24T15:47:36.541Z,43.91
2023-05-24T15:50:04.019Z,44.52
2023-05-24T15:52:30.666Z,43.85
2023-05-24T15:54:57.444Z,44.09
2023-05-24T15:57:25.608Z,44.10
2023-05-24T15:59:53.504Z,43.94
2023-05-24T16:02:21.299Z,44.56
2023-05-24T16:04:48.311Z,44.67
2023-05-24T16:07:15.005Z,44.68
2023-05-24T16:09:41.681Z,44.46
2023-05-24T16:12:09.113Z,44.29
2023-05-24T16:14:36.019Z,44.82
2023-05-24T16:17:05.612Z,44.91
2023-05-24T16:19:32.630Z,44.38
2023-05-24T16:21:59.661Z,44.31
2023-05-24T16:24:27.710Z,44.48
2023-05-24T16:26:54.554Z,44.48
2023-05-24T16:29:21.531Z,44.60
2023-05-24T16:31:48.471Z,44.53
2023-05-24T16:34:16.628Z,44.79
2023-05-24T16:36:45.725Z,44.74
2023-05-24T16:39:13.260Z,44.95
2023-05-24T16:41:40.553Z,44.65
2023-05-24T16:44:07.319Z,44.42
2023-05-24T16:46:34.571Z,44.80
2023-05-24T16:49:01.315Z,44.65
2023-05-24T16:51:27.881Z,44.37
2023-05-24T16:53:54.772Z,44.42
2023-05-24T16:56:21.642Z,44.56
2023-05-24T16:58:48.302Z,44.45
2023-05-24T17:01:15.224Z,44.57
2023-05-24T17:03:42.146Z,44.73
2023-05-24T17:06:08.965Z,44.32
2023-05-24T17:08:36.770Z,44.48
2023-05-24T17:11:04.740Z,44.33
2023-05-24T17:13:31.851Z,44.73
2023-05-24T17:16:00.512Z,44.56
2023-05-24T17:18:30.467Z,44.62
2023-05-24T17:20:59.189Z,44.68
2023-05-24T17:23:27.064Z,44.44
2023-05-24T17:25:55.524Z,44.18
2023-05-24T17:28:27.707Z,44.18
2023-05-24T17:30:59.919Z,44.45
2023-05-24T17:33:28.444Z,44.59
2023-05-24T17:36:02.919Z,44.25
2023-05-24T17:38:33.242Z,44.42
2023-05-24T17:41:00.437Z,44.74
2023-05-24T17:43:30.286Z,44.58
2023-05-24T17:46:03.825Z,44.45
2023-05-24T17:48:41.207Z,44.37
2023-05-24T17:51:09.112Z,44.34
2023-05-24T17:53:38.339Z,44.13
2023-05-24T17:56:06.465Z,44.55
2023-05-24T17:58:36.362Z,44.54
2023-05-24T18:01:07.792Z,44.29
2023-05-24T18:03:42.255Z,44.66
2023-05-24T18:06:09.644Z,44.45
2023-05-24T18:08:39.024Z,44.63
2023-05-24T18:11:09.362Z,44.47
2023-05-24T18:13:37.588Z,44.76
2023-05-24T18:16:09.885Z,44.47
2023-05-24T18:18:38.024Z,44.75
2023-05-24T18:21:05.499Z,44.62
2023-05-24T18:23:37.684Z,44.77
2023-05-24T18:26:10.476Z,44.86
2023-05-24T18:28:38.161Z,45.01
2023-05-24T18:31:12.825Z,45.18
2023-05-24T18:33:42.581Z,44.94
2023-05-24T18:36:09.798Z,44.98
2023-05-24T18:38:37.555Z,45.12
2023-05-24T18:41:06.572Z,45.04
2023-05-24T18:43:35.694Z,45.14
2023-05-24T18:46:02.811Z,45.36
2023-05-24T18:48:29.829Z,45.76
2023-05-24T18:50:58.147Z,45.51
2023-05-24T18:53:25.791Z,46.01
2023-05-24T18:55:53.901Z,45.74
2023-05-24T18:58:22.381Z,45.84
2023-05-24T19:00:50.542Z,45.55
2023-05-24T19:03:20.167Z,45.60
2023-05-24T19:05:50.802Z,45.57
2023-05-24T19:08:18.515Z,45.68
2023-05-24T19:10:45.448Z,45.74
2023-05-24T19:13:12.074Z,45.96
2023-05-24T19:15:38.827Z,45.74
2023-05-24T19:18:06.386Z,45.55
2023-05-24T19:20:34.393Z,45.72
2023-05-24T19:23:01.205Z,45.72
2023-05-24T19:25:28.177Z,45.84
2023-05-24T19:27:59.866Z,45.56
2023-05-24T19:30:28.564Z,45.70
2023-05-24T19:32:57.208Z,45.70
2023-05-24T19:35:24.214Z,45.45
2023-05-24T19:37:53.503Z,45.84
2023-05-24T19:40:23.090Z,45.54
2023-05-24T19:42:50.038Z,45.81
2023-05-24T19:45:16.930Z,45.57
2023-05-24T19:47:48.026Z,45.41
2023-05-24T19:50:17.304Z,45.58
2023-05-24T19:52:47.192Z,45.63
2023-05-24T19:55:15.387Z,45.59
2023-05-24T19:57:42.219Z,45.38
2023-05-24T20:00:09.457Z,45.08
2023-05-24T20:02:36.774Z,45.41
2023-05-24T20:05:04.063Z,45.29
2023-05-24T20:07:32.193Z,45.28
2023-05-24T20:09:59.217Z,45.36
2023-05-24T20:12:26.652Z,45.61
2023-05-24T20:14:54.954Z,45.20
2023-05-24T20:17:23.488Z,45.27
2023-05-24T20:19:50.582Z,45.20
2023-05-24T20:22:20.769Z,45.40
2023-05-24T20:24:47.551Z,45.18
2023-05-24T20:27:14.893Z,45.37
2023-05-24T20:29:43.008Z,45.26
2023-05-24T20:32:10.183Z,45.31
2023-05-24T20:34:43.721Z,45.48
2023-05-24T20:37:13.262Z,45.35
2023-05-24T20:39:41.189Z,45.14
2023-05-24T20:42:08.430Z,45.20
2023-05-24T20:44:35.218Z,45.29
2023-05-24T20:47:03.085Z,45.50
2023-05-24T20:49:31.258Z,45.50
2023-05-24T20:51:58.336Z,45.65
2023-05-24T20:54:25.132Z,45.47
2023-05-24T20:56:52.333Z,45.88
2023-05-24T20:59:19.375Z,45.65
2023-05-24T21:01:46.287Z,45.96
2023-05-24T21:04:14.084Z,46.08
2023-05-24T21:06:40.706Z,45.95
2023-05-24T21:09:07.528Z,45.85
2023-05-24T21:11:34.238Z,45.93
2023-05-24T21:14:01.084Z,45.81
2023-05-24T21:16:28.264Z,46.26
2023-05-24T21:18:55.064Z,45.99
2023-05-24T21:21:24.831Z,45.98
2023-05-24T21:23:51.612Z,46.14
2023-05-24T21:26:18.272Z,46.10
2023-05-24T21:28:45.127Z,46.13
2023-05-24T21:31:11.925Z,46.17
2023-05-24T21:33:42.801Z,46.03
2023-05-24T21:36:10.171Z,46.50
2023-05-24T21:38:36.793Z,46.38
2023-05-24T21:41:05.254Z,46.24
2023-05-24T21:43:32.188Z,46.25
2023-05-24T21:45:58.837Z,46.42
2023-05-24T21:48:26.833Z,46.59
2023-05-24T21:50:53.439Z,46.32
2023-05-24T21:53:20.203Z,46.48
2023-05-24T21:55:46.943Z,46.61
2023-05-24T21:58:13.664Z,46.48
2023-05-24T22:00:40.537Z,46.32
2023-05-24T22:03:07.445Z,46.60
2023-05-24T22:05:34.232Z,46.28
2023-05-24T22:08:01.122Z,46.35
2023-05-24T22:10:27.806Z,46.78
2023-05-24T22:12:54.445Z,46.43
2023-05-24T22:15:21.320Z,46.46
2023-05-24T22:17:48.347Z,46.81
2023-05-24T22:20:15.287Z,46.47
2023-05-24T22:22:48.847Z,46.76
2023-05-24T22:25:19.480Z,46.46
2023-05-24T22:27:49.890Z,46.22
2023-05-24T22:30:17.636Z,46.72
2023-05-24T22:32:44.564Z,46.65
2023-05-24T22:35:11.477Z,46.75
2023-05-24T22:37:38.443Z,46.79
2023-05-24T22:40:05.619Z,46.88
2023-05-24T22:42:32.264Z,46.61
2023-05-24T22:44:59.060Z,46.88
2023-05-24T22:47:26.432Z,46.75
2023-05-24T22:49:55.901Z,46.93
2023-05-24T22:52:24.473Z,46.90
2023-05-24T22:54:51.424Z,46.80
2023-05-24T22:57:21.704Z,46.78
2023-05-24T22:59:49.541Z,46.81
2023-05-24T23:02:16.305Z,47.13
2023-05-24T23:04:47.484Z,46.92
2023-05-24T23:07:17.546Z,46.98
2023-05-24T23:09:44.450Z,47.22
2023-05-24T23:12:11.765Z,46.97
2023-05-24T23:14:41.482Z,46.83
2023-05-24T23:17:10.395Z,46.96
2023-05-24T23:19:42.916Z,47.15
2023-05-24T23:22:11.895Z,47.28
2023-05-24T23:24:44.674Z,46.83
2023-05-24T23:27:11.397Z,46.72
2023-05-24T23:29:39.097Z,47.03
2023-05-24T23:32:07.355Z,47.30
2023-05-24T23:34:34.116Z,47.01
2023-05-24T23:37:04.680Z,47.47
2023-05-24T23:39:31.482Z,46.95
2023-05-24T23:41:58.116Z,47.33
2023-05-24T23:44:25.701Z,47.17
2023-05-24T23:46:53.003Z,47.24
2023-05-24T23:49:20.478Z,46.96
2023-05-24T23:51:47.078Z,47.30
2023-05-24T23:54:14.734Z,47.42
2023-05-24T23:56:42.811Z,47.36
2023-05-24T23:59:09.433Z,47.16
